Time;durP1;ratioP1;P1;durP2;ratioP2;P2;SDS_P1;SDS_P2;PMS_P1;PMS_P2;Temp;Humidity;BMP_temperature;BMP_pressure;BME280_temperature;BME280_humidity;BME280_pressure;Samples;Min_cycle;Max_cycle;Signal;HPM_P1;HPM_P2
2023/04/20 00:01:01;;;;;;;8.60;5.80;;;;;;;1.58;100.00;96329.78;7398684;19;20366;-75
2023/04/20 00:03:28;;;;;;;4.97;4.57;;;;;;;1.30;100.00;96286.16;7398161;19;20475;-75
2023/04/20 00:05:55;;;;;;;7.50;5.93;;;;;;;1.41;100.00;96303.31;7397320;19;20416;-75
2023/04/20 00:08:22;;;;;;;5.73;4.97;;;;;;;1.41;100.00;96285.06;7398345;19;20385;-75
2023/04/20 00:10:49;;;;;;;7.60;5.20;;;;;;;1.59;100.00;96301.91;7396865;19;20353;-75
2023/04/20 00:13:15;;;;;;;6.97;5.77;;;;;;;1.48;100.00;96278.53;7398483;19;20757;-75
2023/04/20 00:15:42;;;;;;;8.93;4.77;;;;;;;1.55;100.00;96282.66;7397722;19;20417;-75
2023/04/20 00:18:09;;;;;;;5.53;5.10;;;;;;;1.55;100.00;96285.25;7398439;19;20349;-76
2023/04/20 00:20:37;;;;;;;8.33;5.03;;;;;;;1.16;100.00;96236.50;7397137;19;20384;-75
2023/04/20 00:23:04;;;;;;;6.60;5.70;;;;;;;1.26;100.00;96259.09;7398565;19;20425;-75
2023/04/20 00:25:31;;;;;;;6.37;5.87;;;;;;;1.06;100.00;96229.50;7396313;19;20484;-75
2023/04/20 00:27:59;;;;;;;5.17;4.67;;;;;;;1.52;100.00;96272.78;7398856;19;20419;-75
2023/04/20 00:30:26;;;;;;;5.10;4.60;;;;;;;1.33;100.00;96256.97;7396758;19;20397;-75
2023/04/20 00:32:52;;;;;;;4.63;4.23;;;;;;;1.64;100.00;96294.84;7396455;19;20417;-75
2023/04/20 00:35:19;;;;;;;5.20;4.80;;;;;;;1.62;100.00;96294.34;7394887;19;20437;-75
2023/04/20 00:37:46;;;;;;;5.70;5.20;;;;;;;1.47;100.00;96278.81;7398431;19;20368;-75
2023/04/20 00:40:13;;;;;;;8.30;5.63;;;;;;;1.66;100.00;96297.97;7396378;19;20400;-75
2023/04/20 00:42:41;;;;;;;5.77;5.20;;;;;;;1.61;100.00;96295.41;7397618;19;20485;-75
2023/04/20 00:45:08;;;;;;;5.07;4.67;;;;;;;1.72;100.00;96302.09;7396295;19;20409;-75
2023/04/20 00:47:36;;;;;;;5.33;4.93;;;;;;;1.25;100.00;96297.38;7397796;19;20397;-75
2023/04/20 00:50:03;;;;;;;6.73;5.47;;;;;;;0.87;100.00;96244.16;7396504;19;20489;-75
2023/04/20 00:52:31;;;;;;;6.33;5.17;;;;;;;1.11;100.00;96283.38;7394774;19;20349;-75
2023/04/20 00:54:58;;;;;;;6.53;5.93;;;;;;;0.91;100.00;96291.25;7395195;19;20436;-75
2023/04/20 00:57:26;;;;;;;7.83;5.40;;;;;;;0.82;100.00;96288.44;7394637;19;20757;-75
2023/04/20 00:59:53;;;;;;;6.10;5.50;;;;;;;1.02;100.00;96298.75;7397362;19;20337;-75
2023/04/20 01:02:21;;;;;;;7.87;5.10;;;;;;;0.98;100.00;96291.75;7392301;19;20440;-75
2023/04/20 01:04:48;;;;;;;5.67;5.00;;;;;;;0.50;100.00;96245.31;7395070;19;20428;-75
2023/04/20 01:07:15;;;;;;;7.40;5.20;;;;;;;1.06;100.00;96283.38;7394896;19;20369;-75
2023/04/20 01:09:42;;;;;;;8.43;5.90;;;;;;;0.64;100.00;96242.16;7396208;19;20405;-75
2023/04/20 01:12:10;;;;;;;7.17;6.43;;;;;;;0.78;100.00;96253.56;7393087;19;20409;-75
2023/04/20 01:14:36;;;;;;;6.80;5.87;;;;;;;0.94;100.00;96285.53;7394904;19;20445;-75
2023/04/20 01:17:04;;;;;;;5.57;5.07;;;;;;;1.02;100.00;96254.50;7394340;19;20921;-75
2023/04/20 01:19:32;;;;;;;5.53;5.03;;;;;;;1.33;100.00;96283.00;7397417;19;20369;-75
2023/04/20 01:22:01;;;;;;;6.97;5.43;;;;;;;1.26;100.00;96285.16;7394363;19;20408;-75
2023/04/20 01:24:28;;;;;;;11.30;7.07;;;;;;;0.96;100.00;96257.41;7395145;19;20462;-75
2023/04/20 01:26:57;;;;;;;6.27;5.33;;;;;;;1.20;100.00;96250.53;7394686;19;20730;-75
2023/04/20 01:29:24;;;;;;;5.23;4.80;;;;;;;1.17;100.00;96258.88;7395386;19;20981;-75
2023/04/20 01:31:51;;;;;;;6.30;5.70;;;;;;;1.21;100.00;96248.72;7393775;19;20365;-75
2023/04/20 01:34:18;;;;;;;8.00;6.47;;;;;;;1.27;100.00;96268.47;7395663;19;20456;-74
2023/04/20 01:36:45;;;;;;;7.30;6.33;;;;;;;1.22;100.00;96245.84;7394488;19;20409;-74
2023/04/20 01:39:12;;;;;;;6.40;5.80;;;;;;;1.44;100.00;96264.47;7395665;19;20408;-74
2023/04/20 01:41:39;;;;;;;7.80;7.00;;;;;;;1.36;100.00;96225.97;7394601;19;20383;-74
2023/04/20 01:44:07;;;;;;;6.60;6.00;;;;;;;1.23;100.00;96228.41;7394873;19;20528;-74
2023/04/20 01:46:40;;;;;;;8.40;6.13;;;;;;;0.99;100.00;96226.44;7394474;19;20389;-74
2023/04/20 01:49:08;;;;;;;5.80;5.30;;;;;;;1.23;100.00;96234.38;7396057;19;20405;-74
2023/04/20 01:51:36;;;;;;;6.63;5.93;;;;;;;1.05;100.00;96237.59;7393626;19;20386;-74
2023/04/20 01:54:02;;;;;;;6.83;6.10;;;;;;;1.03;100.00;96240.44;7395869;19;20575;-74
2023/04/20 01:56:30;;;;;;;8.37;6.93;;;;;;;1.09;100.00;96215.97;7395552;19;20385;-74
2023/04/20 01:58:57;;;;;;;7.90;7.10;;;;;;;1.29;100.00;96217.69;7395983;19;20393;-75
2023/04/20 02:01:25;;;;;;;8.60;7.70;;;;;;;1.51;100.00;96255.59;7394247;19;20940;-75
2023/04/20 02:03:52;;;;;;;7.33;6.63;;;;;;;1.47;100.00;96247.53;7392055;19;20988;-75
2023/04/20 02:06:20;;;;;;;7.50;6.80;;;;;;;0.91;100.00;96169.72;7394276;19;20378;-75
2023/04/20 02:08:47;;;;;;;7.43;6.73;;;;;;;1.33;100.00;96226.50;7392796;19;20755;-75
2023/04/20 02:11:14;;;;;;;7.10;6.33;;;;;;;1.29;100.00;96227.31;7393615;19;20372;-75
2023/04/20 02:13:41;;;;;;;9.87;8.33;;;;;;;1.22;100.00;96245.06;7393613;19;20479;-75
2023/04/20 02:16:08;;;;;;;8.23;6.40;;;;;;;1.29;100.00;96242.94;7403276;19;20374;-75
2023/04/20 02:18:36;;;;;;;8.73;6.93;;;;;;;1.15;100.00;96219.31;7399889;19;20468;-75
2023/04/20 02:21:05;;;;;;;8.57;6.90;;;;;;;1.12;100.00;96199.81;7402437;19;20404;-74
2023/04/20 02:23:32;;;;;;;11.43;7.33;;;;;;;1.04;100.00;96210.00;7399584;19;20969;-74
2023/04/20 02:25:59;;;;;;;12.93;8.00;;;;;;;1.10;100.00;96219.34;7401500;19;20803;-74
2023/04/20 02:28:25;;;;;;;13.30;7.27;;;;;;;1.22;100.00;96240.66;7400158;19;20380;-74
2023/04/20 02:30:52;;;;;;;9.73;7.60;;;;;;;1.22;100.00;96230.22;7401803;19;20384;-74
2023/04/20 02:33:20;;;;;;;8.57;7.70;;;;;;;1.11;100.00;96203.47;7397517;19;20412;-74
2023/04/20 02:35:50;;;;;;;8.93;8.03;;;;;;;1.04;100.00;96202.97;7401739;19;20388;-74
2023/04/20 02:38:17;;;;;;;10.77;7.60;;;;;;;1.07;100.00;96232.88;7399850;19;20401;-74
2023/04/20 02:40:44;;;;;;;8.07;7.27;;;;;;;1.02;100.00;96209.50;7402678;19;20413;-74
2023/04/20 02:43:11;;;;;;;8.23;7.07;;;;;;;1.02;100.00;96191.28;7400135;19;20348;-74
2023/04/20 02:45:39;;;;;;;10.10;7.53;;;;;;;1.23;100.00;96218.00;7398355;19;20445;-74
2023/04/20 02:48:07;;;;;;;8.83;7.50;;;;;;;1.04;100.00;96204.78;7399613;19;20409;-74
2023/04/20 02:50:36;;;;;;;7.87;7.07;;;;;;;1.23;100.00;96218.78;7400793;19;20906;-74
2023/04/20 02:53:12;;;;;;;9.77;6.57;;;;;;;1.20;100.00;96237.50;7397404;19;20396;-74
2023/04/20 02:55:39;;;;;;;7.13;6.40;;;;;;;1.27;100.00;96230.19;7398356;19;20435;-74
2023/04/20 02:58:20;;;;;;;7.43;6.27;;;;;;;0.76;100.00;96193.97;7400439;19;20379;-74
2023/04/20 03:01:10;;;;;;;7.80;6.23;;;;;;;0.88;100.00;96215.28;7396568;19;20384;-74
2023/04/20 03:03:38;;;;;;;7.50;6.90;;;;;;;0.86;100.00;96206.97;7400114;19;21036;-75
2023/04/20 03:06:09;;;;;;;10.10;7.80;;;;;;;0.59;100.00;96202.13;7400168;19;20444;-75
2023/04/20 03:08:36;;;;;;;7.67;6.77;;;;;;;0.45;100.00;96188.13;7400547;19;20735;-75
2023/04/20 03:11:22;;;;;;;8.17;7.33;;;;;;;0.67;100.00;96194.78;7401343;19;20783;-74
2023/04/20 03:13:49;;;;;;;8.00;7.30;;;;;;;0.44;100.00;96162.38;7397707;19;20970;-75
2023/04/20 03:16:17;;;;;;;8.80;7.70;;;;;;;0.49;100.00;96176.13;7400018;19;20409;-75
2023/04/20 03:18:48;;;;;;;9.10;7.97;;;;;;;0.76;100.00;96206.22;7398649;19;20724;-75
2023/04/20 03:21:15;;;;;;;9.77;8.77;;;;;;;0.41;100.00;96174.09;7399548;19;20457;-75
2023/04/20 03:23:43;;;;;;;7.87;7.13;;;;;;;0.66;100.00;96193.25;7397661;19;20517;-75
2023/04/20 03:26:11;;;;;;;8.70;7.90;;;;;;;0.89;100.00;96203.81;7397717;19;20787;-75
2023/04/20 03:28:55;;;;;;;8.97;8.07;;;;;;;0.50;100.00;96164.69;7398671;19;20381;-75
2023/04/20 03:31:24;;;;;;;9.63;8.30;;;;;;;0.62;100.00;96159.19;7397041;19;20916;-74
2023/04/20 03:33:53;;;;;;;6.87;6.17;;;;;;;0.81;100.00;96195.81;7396150;19;20779;-74
2023/04/20 03:36:20;;;;;;;8.27;7.47;;;;;;;0.43;100.00;96179.03;7397791;19;20397;-75
2023/04/20 03:38:47;;;;;;;7.53;6.87;;;;;;;0.61;100.00;96172.47;7399184;19;20410;-75
2023/04/20 03:41:14;;;;;;;7.20;6.43;;;;;;;0.78;100.00;96206.72;7397372;19;20412;-75
2023/04/20 03:43:41;;;;;;;8.27;7.50;;;;;;;0.74;100.00;96190.88;7398295;19;20452;-75
2023/04/20 03:46:08;;;;;;;7.77;6.90;;;;;;;0.53;100.00;96169.34;7396892;19;20345;-75
2023/04/20 03:48:35;;;;;;;6.97;6.33;;;;;;;0.69;100.00;96216.16;7398128;19;20904;-75
2023/04/20 03:51:02;;;;;;;9.43;7.67;;;;;;;0.79;100.00;96221.28;7397091;19;20374;-75
2023/04/20 03:53:30;;;;;;;8.83;7.20;;;;;;;0.79;100.00;96216.09;7396249;19;20451;-75
2023/04/20 03:55:58;;;;;;;8.07;6.90;;;;;;;0.34;100.00;96180.59;7396750;19;20440;-75
2023/04/20 03:58:25;;;;;;;7.10;6.40;;;;;;;0.42;100.00;96190.47;7398297;19;20396;-75
2023/04/20 04:01:06;;;;;;;8.77;6.80;;;;;;;0.54;100.00;96211.78;7396904;19;20396;-75
2023/04/20 04:03:36;;;;;;;7.97;7.17;;;;;;;0.30;100.00;96182.97;7398020;19;20372;-75
2023/04/20 04:06:03;;;;;;;8.10;6.57;;;;;;;0.15;100.00;96185.59;7397330;19;20376;-75
2023/04/20 04:08:31;;;;;;;8.23;6.07;;;;;;;0.30;100.00;96188.16;7398295;19;20375;-75
2023/04/20 04:10:59;;;;;;;7.40;6.70;;;;;;;0.23;100.00;96180.63;7397427;19;20384;-75
2023/04/20 04:13:26;;;;;;;8.00;6.50;;;;;;;0.58;100.00;96216.16;7396893;19;20920;-75
2023/04/20 04:15:53;;;;;;;8.17;7.37;;;;;;;0.55;100.00;96215.94;7401375;19;20384;-75
2023/04/20 04:18:21;;;;;;;7.67;6.97;;;;;;;0.46;100.00;96209.69;7422082;19;20392;-75
2023/04/20 04:20:49;;;;;;;7.20;6.60;;;;;;;0.27;100.00;96188.69;7412090;19;20411;-75
2023/04/20 04:23:16;;;;;;;11.33;7.13;;;;;;;0.38;100.00;96200.59;7398516;19;20384;-75
2023/04/20 04:25:57;;;;;;;8.50;7.20;;;;;;;0.37;100.00;96180.06;7402572;19;20372;-74
2023/04/20 04:28:25;;;;;;;9.27;7.20;;;;;;;0.55;100.00;96211.50;7395625;19;20434;-75
2023/04/20 04:31:00;;;;;;;7.73;7.03;;;;;;;0.54;100.00;96203.97;7397325;19;20402;-75
2023/04/20 04:33:27;;;;;;;7.80;7.10;;;;;;;0.20;100.00;96149.97;7394772;19;20418;-75
2023/04/20 04:35:54;;;;;;;11.07;9.17;;;;;;;0.65;100.00;96200.25;7397202;19;20377;-75
2023/04/20 04:38:22;;;;;;;9.60;6.90;;;;;;;0.26;100.00;96182.69;7394912;19;20935;-75
2023/04/20 04:40:51;;;;;;;8.87;8.00;;;;;;;0.20;100.00;96188.19;7397463;19;20403;-75
2023/04/20 04:43:18;;;;;;;7.90;7.20;;;;;;;0.35;100.00;96221.94;7395396;19;20897;-75
2023/04/20 04:45:58;;;;;;;10.03;7.37;;;;;;;0.39;100.00;96216.97;7397579;19;20397;-75
2023/04/20 04:48:26;;;;;;;8.40;7.70;;;;;;;0.34;100.00;96178.00;7396002;19;20365;-75
2023/04/20 04:50:53;;;;;;;8.93;7.97;;;;;;;0.32;100.00;96198.28;7397590;19;20362;-75
2023/04/20 04:53:20;;;;;;;9.87;8.63;;;;;;;0.26;100.00;96161.13;7394893;19;20400;-75
2023/04/20 04:55:47;;;;;;;8.83;8.03;;;;;;;0.63;100.00;96209.38;7398927;19;20373;-76
2023/04/20 04:58:14;;;;;;;9.43;8.50;;;;;;;0.38;100.00;96159.00;7396351;19;20409;-76
2023/04/20 05:00:41;;;;;;;8.80;7.90;;;;;;;0.72;100.00;96195.56;7395963;19;20341;-75
2023/04/20 05:03:08;;;;;;;8.80;7.30;;;;;;;0.87;100.00;96212.94;7397118;19;20352;-75
2023/04/20 05:05:35;;;;;;;9.70;8.70;;;;;;;0.60;100.00;96140.47;7392194;19;20508;-76
2023/04/20 05:08:02;;;;;;;14.60;7.50;;;;;;;0.79;100.00;96164.81;7395540;19;20349;-76
2023/04/20 05:10:29;;;;;;;10.57;8.73;;;;;;;1.12;100.00;96201.63;7394654;19;20912;-76
2023/04/20 05:12:58;;;;;;;10.10;9.13;;;;;;;1.31;100.00;96217.41;7395123;19;20373;-76
2023/04/20 05:15:25;;;;;;;10.27;9.27;;;;;;;1.40;100.00;96207.97;7393903;19;20416;-76
2023/04/20 05:17:52;;;;;;;10.43;8.30;;;;;;;1.33;100.00;96184.06;7396170;19;20368;-76
2023/04/20 05:20:20;;;;;;;9.83;8.87;;;;;;;1.43;100.00;96205.59;7394212;19;20915;-76
2023/04/20 05:22:47;;;;;;;9.60;8.60;;;;;;;1.54;100.00;96192.53;7395835;19;20412;-76
2023/04/20 05:25:14;;;;;;;10.33;8.80;;;;;;;1.59;100.00;96182.84;7394387;19;20400;-76
2023/04/20 05:27:41;;;;;;;13.20;9.40;;;;;;;1.42;100.00;96144.16;7396993;19;20853;-76
2023/04/20 05:30:08;;;;;;;9.97;9.00;;;;;;;2.12;100.00;96214.19;7395540;19;20372;-76
2023/04/20 05:32:47;;;;;;;9.90;8.80;;;;;;;1.98;100.00;96180.16;7395599;19;20376;-76
2023/04/20 05:35:17;;;;;;;8.50;7.80;;;;;;;2.33;100.00;96220.81;7392945;19;20453;-75
2023/04/20 05:37:46;;;;;;;9.30;8.40;;;;;;;2.33;100.00;96226.00;7395833;19;20377;-76
2023/04/20 05:40:14;;;;;;;8.33;7.57;;;;;;;2.19;100.00;96190.44;7394452;19;20417;-75
2023/04/20 05:42:41;;;;;;;8.53;7.80;;;;;;;2.46;100.00;96224.59;7397908;19;20397;-76
2023/04/20 05:45:09;;;;;;;11.17;9.97;;;;;;;2.39;100.00;96208.47;7393882;19;20432;-75
2023/04/20 05:47:36;;;;;;;12.20;11.10;;;;;;;2.56;100.00;96201.00;7394456;19;20369;-75
2023/04/20 05:50:03;;;;;;;11.10;9.50;;;;;;;2.44;100.00;96220.72;7394532;19;20362;-75
2023/04/20 05:52:30;;;;;;;10.63;9.70;;;;;;;2.49;100.00;96225.88;7394317;19;20386;-75
2023/04/20 05:54:58;;;;;;;10.60;8.80;;;;;;;2.56;100.00;96223.72;7393423;19;20502;-76
2023/04/20 05:57:25;;;;;;;10.47;9.30;;;;;;;2.23;100.00;96191.41;7394625;19;20377;-76
2023/04/20 05:59:54;;;;;;;7.43;6.73;;;;;;;2.07;100.00;96196.00;7394875;19;20377;-76
2023/04/20 06:02:21;;;;;;;10.80;8.23;;;;;;;2.40;100.00;96224.91;7393188;19;20409;-76
2023/04/20 06:04:48;;;;;;;9.03;8.23;;;;;;;2.29;100.00;96198.16;7393476;19;20429;-76
2023/04/20 06:07:16;;;;;;;8.40;7.60;;;;;;;2.50;100.00;96224.81;7393054;19;20946;-76
2023/04/20 06:09:43;;;;;;;9.20;8.03;;;;;;;2.82;100.00;96229.44;7394359;19;20420;-76
2023/04/20 06:12:10;;;;;;;9.97;9.03;;;;;;;2.62;100.00;96184.22;7392541;19;20991;-76
2023/04/20 06:14:37;;;;;;;8.70;7.90;;;;;;;3.12;100.00;96229.06;7392247;19;20436;-76
2023/04/20 06:17:04;;;;;;;7.60;6.90;;;;;;;3.33;100.00;96226.19;7393159;19;20353;-76
2023/04/20 06:19:31;;;;;;;9.20;7.97;;;;;;;3.41;100.00;96205.44;7396033;19;20381;-76
2023/04/20 06:21:58;;;;;;;8.27;7.47;;;;;;;3.80;100.00;96235.72;7392825;19;20483;-76
2023/04/20 06:24:26;;;;;;;10.03;7.33;;;;;;;4.22;100.00;96234.00;7393711;19;20760;-76
2023/04/20 06:26:53;;;;;;;7.90;7.20;;;;;;;4.36;100.00;96234.81;7392776;19;20400;-76
2023/04/20 06:29:20;;;;;;;8.53;7.73;;;;;;;4.57;100.00;96250.94;7394406;19;20743;-76
2023/04/20 06:31:47;;;;;;;9.70;7.97;;;;;;;4.54;100.00;96239.22;7392646;19;20333;-76
2023/04/20 06:34:15;;;;;;;11.00;7.93;;;;;;;4.40;100.00;96226.09;7392537;19;20449;-76
2023/04/20 06:36:42;;;;;;;8.30;7.20;;;;;;;4.59;100.00;96239.13;7394604;19;20377;-76
2023/04/20 06:39:12;;;;;;;9.40;8.27;;;;;;;4.81;100.00;96246.31;7395600;19;20452;-75
2023/04/20 06:41:39;;;;;;;8.77;7.97;;;;;;;4.67;100.00;96256.78;7394344;19;20365;-75
2023/04/20 06:44:06;;;;;;;7.43;6.60;;;;;;;4.53;100.00;96247.34;7393240;19;20964;-76
2023/04/20 06:46:33;;;;;;;9.37;7.77;;;;;;;4.55;100.00;96248.63;7392932;19;20400;-76
2023/04/20 06:49:00;;;;;;;10.00;9.00;;;;;;;4.05;100.00;96250.25;7394248;19;20409;-75
2023/04/20 06:51:28;;;;;;;9.93;8.93;;;;;;;4.29;100.00;96250.91;7392327;19;20388;-75
2023/04/20 06:53:55;;;;;;;10.47;7.90;;;;;;;4.35;100.00;96249.75;7392481;19;20385;-75
2023/04/20 06:56:22;;;;;;;9.70;8.73;;;;;;;4.77;100.00;96241.94;7392260;19;20377;-75
2023/04/20 06:58:49;;;;;;;8.97;8.27;;;;;;;4.95;100.00;96223.50;7393701;19;20528;-75
2023/04/20 07:01:16;;;;;;;8.97;7.57;;;;;;;4.36;100.00;96247.91;7399874;19;20352;-75
2023/04/20 07:03:45;;;;;;;9.87;8.87;;;;;;;4.37;100.00;96241.59;7400477;19;20899;-75
2023/04/20 07:06:12;;;;;;;10.40;8.77;;;;;;;4.28;100.00;96244.13;7399825;19;20353;-75
2023/04/20 07:08:39;;;;;;;11.60;9.77;;;;;;;4.89;100.00;96257.94;7400770;19;20380;-75
2023/04/20 07:11:06;;;;;;;10.83;9.73;;;;;;;4.77;100.00;96234.84;7399548;19;20769;-75
2023/04/20 07:13:33;;;;;;;10.60;9.00;;;;;;;4.67;100.00;96248.94;7401781;19;20380;-75
2023/04/20 07:16:01;;;;;;;11.30;9.47;;;;;;;4.68;100.00;96231.38;7400936;19;20897;-75
2023/04/20 07:18:28;;;;;;;11.33;10.30;;;;;;;5.39;100.00;96248.31;7397600;19;20376;-75
2023/04/20 07:20:55;;;;;;;10.00;9.10;;;;;;;5.32;100.00;96212.00;7399273;19;20746;-75
2023/04/20 07:23:22;;;;;;;10.33;9.30;;;;;;;5.75;100.00;96232.59;7397934;19;20814;-75
2023/04/20 07:25:49;;;;;;;9.30;8.40;;;;;;;5.87;100.00;96248.53;7401000;19;20457;-75
2023/04/20 07:28:16;;;;;;;7.80;7.10;;;;;;;5.66;100.00;96204.72;7399362;19;20412;-75
2023/04/20 07:30:43;;;;;;;8.80;8.10;;;;;;;5.49;100.00;96221.88;7400579;19;20345;-76
2023/04/20 07:33:10;;;;;;;7.90;7.10;;;;;;;5.05;100.00;96207.56;7396756;19;20376;-75
2023/04/20 07:35:37;;;;;;;7.87;6.63;;;;;;;5.20;100.00;96248.41;7398437;19;20408;-76
2023/04/20 07:38:04;;;;;;;8.90;8.00;;;;;;;5.24;100.00;96249.41;7399165;19;20373;-75
2023/04/20 07:40:31;;;;;;;9.00;8.30;;;;;;;5.52;100.00;96221.28;7399726;19;20392;-75
2023/04/20 07:42:58;;;;;;;9.10;8.20;;;;;;;6.21;100.00;96257.78;7397228;19;20947;-76
2023/04/20 07:45:25;;;;;;;8.40;7.60;;;;;;;5.78;100.00;96236.44;7397199;19;20453;-75
2023/04/20 07:47:54;;;;;;;8.90;8.10;;;;;;;5.48;100.00;96227.41;7397922;19;20404;-75
2023/04/20 07:50:21;;;;;;;6.13;5.50;;;;;;;5.68;100.00;96253.19;7398884;19;20377;-75
2023/04/20 07:52:47;;;;;;;7.87;7.07;;;;;;;5.50;100.00;96265.38;7398475;19;20369;-76
2023/04/20 07:55:16;;;;;;;8.63;7.77;;;;;;;5.16;100.00;96239.59;7397096;19;20420;-75
2023/04/20 07:57:43;;;;;;;7.87;7.17;;;;;;;5.34;100.00;96262.31;7397344;19;20389;-75
2023/04/20 08:00:11;;;;;;;7.43;6.83;;;;;;;5.40;100.00;96247.22;7400100;19;20780;-75
2023/04/20 08:02:39;;;;;;;8.73;7.83;;;;;;;5.03;100.00;96262.13;7398415;19;20447;-75
2023/04/20 08:05:08;;;;;;;9.17;8.17;;;;;;;5.41;100.00;96259.28;7398468;19;20389;-75
2023/04/20 08:07:36;;;;;;;10.40;9.30;;;;;;;5.38;100.00;96259.88;7397884;19;20395;-75
2023/04/20 08:10:05;;;;;;;9.50;8.50;;;;;;;5.31;100.00;96239.28;7400845;19;20387;-75
2023/04/20 08:12:32;;;;;;;11.77;8.50;;;;;;;5.23;100.00;96231.34;7396281;19;20404;-76
2023/04/20 08:15:00;;;;;;;12.23;9.60;;;;;;;5.17;100.00;96267.34;7397184;19;20401;-75
2023/04/20 08:17:27;;;;;;;9.67;8.77;;;;;;;5.04;100.00;96247.94;7397576;19;20732;-75
2023/04/20 08:19:54;;;;;;;10.90;9.17;;;;;;;4.98;100.00;96256.97;7398592;19;20397;-75
2023/04/20 08:22:23;;;;;;;12.57;10.70;;;;;;;4.50;100.00;96229.59;7396949;19;20373;-75
2023/04/20 08:24:50;;;;;;;12.80;11.30;;;;;;;4.58;100.00;96242.03;7398843;19;20427;-75
2023/04/20 08:27:17;;;;;;;14.33;11.93;;;;;;;4.60;100.00;96230.19;7397250;19;20385;-75
2023/04/20 08:29:43;;;;;;;17.13;12.90;;;;;;;4.47;100.00;96257.13;7398676;19;20992;-75
2023/04/20 08:32:11;;;;;;;17.37;12.80;;;;;;;4.18;100.00;96207.66;7398540;19;20893;-75
2023/04/20 08:34:39;;;;;;;17.73;12.90;;;;;;;4.60;100.00;96258.22;7398809;19;20413;-76
2023/04/20 08:37:07;;;;;;;16.73;14.30;;;;;;;4.27;100.00;96233.91;7398341;19;20714;-75
2023/04/20 08:39:35;;;;;;;19.00;14.50;;;;;;;4.29;100.00;96255.34;7395200;19;20385;-76
2023/04/20 08:42:02;;;;;;;25.13;14.13;;;;;;;4.35;100.00;96248.97;7396533;19;20426;-76
2023/04/20 08:44:29;;;;;;;15.83;13.10;;;;;;;4.68;100.00;96262.81;7394891;19;20436;-75
2023/04/20 08:46:56;;;;;;;18.27;14.43;;;;;;;4.27;100.00;96220.81;7398279;19;20369;-75
2023/04/20 08:49:27;;;;;;;18.03;13.17;;;;;;;4.36;100.00;96243.44;7395421;19;20389;-75
2023/04/20 08:51:54;;;;;;;18.27;13.90;;;;;;;4.71;100.00;96230.78;7397989;19;20405;-76
2023/04/20 08:54:21;;;;;;;15.77;14.13;;;;;;;4.58;100.00;96237.56;7393672;19;20424;-76
2023/04/20 08:56:50;;;;;;;17.03;13.47;;;;;;;4.58;100.00;96257.75;7398265;19;20345;-76
2023/04/20 08:59:17;;;;;;;20.87;15.07;;;;;;;4.69;100.00;96256.50;7395059;19;21107;-76
2023/04/20 09:01:44;;;;;;;14.10;12.10;;;;;;;4.86;100.00;96259.31;7397156;19;20376;-76
2023/04/20 09:04:22;;;;;;;16.70;13.83;;;;;;;4.74;100.00;96257.16;7394568;19;20397;-76
2023/04/20 09:06:51;;;;;;;15.60;13.00;;;;;;;4.62;100.00;96254.25;7399016;19;20420;-76
2023/04/20 09:09:20;;;;;;;15.23;12.53;;;;;;;4.31;100.00;96237.53;7395895;19;20383;-76
2023/04/20 09:11:47;;;;;;;17.50;13.67;;;;;;;4.64;100.00;96249.50;7397261;19;20409;-76
2023/04/20 09:14:15;;;;;;;13.50;11.03;;;;;;;4.21;100.00;96216.75;7394443;19;20815;-76
2023/04/20 09:17:03;;;;;;;13.83;11.43;;;;;;;4.43;100.00;96240.47;7398469;19;20444;-76
2023/04/20 09:19:30;;;;;;;13.97;12.33;;;;;;;4.54;100.00;96247.06;7396624;19;20383;-76
2023/04/20 09:22:02;;;;;;;12.70;10.80;;;;;;;4.58;100.00;96239.41;7394475;19;20917;-76
2023/04/20 09:24:34;;;;;;;13.27;11.37;;;;;;;4.52;100.00;96209.91;7394626;19;20462;-76
2023/04/20 09:27:14;;;;;;;12.90;10.03;;;;;;;4.60;100.00;96211.09;7396798;19;20393;-76
2023/04/20 09:29:41;;;;;;;13.13;11.50;;;;;;;4.73;100.00;96208.47;7397240;19;20708;-76
2023/04/20 09:32:21;;;;;;;11.00;9.67;;;;;;;4.41;100.00;96203.34;7394861;19;20369;-76
2023/04/20 09:34:49;;;;;;;15.03;12.10;;;;;;;4.68;100.00;96232.16;7392836;19;20404;-75
2023/04/20 09:37:16;;;;;;;14.13;11.20;;;;;;;4.90;100.00;96235.91;7395829;19;20425;-76
2023/04/20 09:39:44;;;;;;;12.30;9.97;;;;;;;4.58;100.00;96239.41;7395327;19;20353;-75
2023/04/20 09:42:13;;;;;;;12.90;11.70;;;;;;;4.61;100.00;96234.38;7395812;19;20456;-76
2023/04/20 09:44:40;;;;;;;11.80;10.67;;;;;;;4.71;100.00;96225.56;7393687;19;20738;-75
2023/04/20 09:47:07;;;;;;;12.30;11.10;;;;;;;4.92;100.00;96199.72;7416196;19;20368;-75
2023/04/20 09:49:39;;;;;;;11.23;10.10;;;;;;;4.77;100.00;96185.09;7398066;19;20375;-75
2023/04/20 09:52:07;;;;;;;12.40;10.80;;;;;;;4.76;100.00;96199.25;7395892;19;20368;-75
2023/04/20 09:54:36;;;;;;;12.33;11.07;;;;;;;4.80;100.00;96186.34;7393268;19;20440;-75
2023/04/20 09:57:04;;;;;;;15.17;10.83;;;;;;;5.17;100.00;96201.84;7395614;19;20385;-75
2023/04/20 09:59:32;;;;;;;10.30;9.20;;;;;;;5.08;100.00;96205.47;7394042;19;20824;-75
2023/04/20 10:01:59;;;;;;;11.57;10.30;;;;;;;4.96;100.00;96161.41;7395812;19;20715;-76
2023/04/20 10:04:26;;;;;;;12.57;11.17;;;;;;;5.17;100.00;96211.53;7393280;19;20444;-76
2023/04/20 10:06:56;;;;;;;11.03;9.93;;;;;;;5.18;100.00;96211.25;7418455;19;20371;-75
2023/04/20 10:09:25;;;;;;;12.60;10.97;;;;;;;5.34;100.00;96212.50;7419865;19;20380;-75
2023/04/20 10:11:52;;;;;;;11.40;10.27;;;;;;;4.87;100.00;96168.41;7396397;19;20441;-75
2023/04/20 10:14:23;;;;;;;11.27;9.93;;;;;;;5.28;100.00;96221.53;7393325;19;20408;-74
2023/04/20 10:17:00;;;;;;;9.70;7.70;;;;;;;5.12;100.00;96211.66;7396084;19;20479;-75
2023/04/20 10:19:44;;;;;;;8.83;8.03;;;;;;;5.08;100.00;96203.63;7394589;19;20451;-75
2023/04/20 10:22:23;;;;;;;9.43;7.50;;;;;;;4.81;100.00;96174.81;7393522;19;20379;-75
2023/04/20 10:24:50;;;;;;;8.67;7.77;;;;;;;4.84;100.00;96176.84;7394012;19;20440;-75
2023/04/20 10:27:21;;;;;;;8.27;7.30;;;;;;;4.99;100.00;96210.59;7394218;19;20401;-75
2023/04/20 10:29:48;;;;;;;8.80;7.37;;;;;;;4.70;100.00;96169.78;7395079;19;20429;-76
2023/04/20 10:32:22;;;;;;;8.33;6.80;;;;;;;4.95;100.00;96199.16;7395087;19;20395;-75
2023/04/20 10:35:05;;;;;;;8.83;7.90;;;;;;;5.03;100.00;96201.09;7392971;19;20416;-75
2023/04/20 10:37:45;;;;;;;8.13;7.30;;;;;;;4.89;100.00;96166.28;7402144;19;20393;-75
2023/04/20 10:40:12;;;;;;;7.07;6.37;;;;;;;4.92;100.00;96161.22;7400876;19;20396;-76
2023/04/20 10:42:45;;;;;;;7.43;6.80;;;;;;;4.88;100.00;96181.22;7404015;19;20354;-76
2023/04/20 10:45:12;;;;;;;7.97;7.23;;;;;;;4.59;100.00;96138.84;7398371;19;20421;-76
2023/04/20 10:47:39;;;;;;;7.67;6.90;;;;;;;4.85;100.00;96178.41;7402179;19;20368;-76
2023/04/20 10:50:08;;;;;;;8.97;7.97;;;;;;;4.75;100.00;96163.66;7400919;19;20393;-76
2023/04/20 10:52:36;;;;;;;8.00;7.20;;;;;;;4.90;100.00;96165.97;7401578;19;20478;-76
2023/04/20 10:55:05;;;;;;;9.47;8.47;;;;;;;4.72;100.00;96166.88;7398171;19;20929;-76
2023/04/20 10:57:32;;;;;;;8.80;7.90;;;;;;;4.41;100.00;96122.19;7423238;19;20393;-75
2023/04/20 11:00:12;;;;;;;9.00;8.13;;;;;;;4.61;100.00;96145.34;7432269;19;20368;-76
2023/04/20 11:02:46;;;;;;;10.50;7.80;;;;;;;4.70;100.00;96130.50;7400008;19;20370;-76
2023/04/20 11:05:14;;;;;;;9.47;7.53;;;;;;;4.88;100.00;96135.91;7399148;19;20435;-75
2023/04/20 11:07:56;;;;;;;13.03;10.57;;;;;;;4.82;100.00;96110.91;7399151;19;20893;-75
2023/04/20 11:10:36;;;;;;;10.07;8.77;;;;;;;4.95;100.00;96137.06;7399723;19;20349;-75
2023/04/20 11:13:03;;;;;;;9.60;8.40;;;;;;;5.12;100.00;96130.44;7400097;19;20401;-76
2023/04/20 11:15:34;;;;;;;11.80;10.40;;;;;;;5.37;100.00;96135.09;7399029;19;20410;-76
2023/04/20 11:18:08;;;;;;;12.43;10.60;;;;;;;5.18;100.00;96095.16;7400178;19;20922;-76
2023/04/20 11:20:35;;;;;;;10.60;9.50;;;;;;;5.49;100.00;96113.59;7399548;19;20416;-76
2023/04/20 11:23:04;;;;;;;11.93;9.37;;;;;;;5.57;100.00;96134.63;7401942;19;20400;-76
2023/04/20 11:25:31;;;;;;;10.97;9.57;;;;;;;5.47;100.00;96098.16;7396680;19;20420;-76
2023/04/20 11:28:08;;;;;;;10.17;9.10;;;;;;;5.61;100.00;96119.84;7402672;19;20996;-76
2023/04/20 11:30:41;;;;;;;10.73;9.63;;;;;;;5.60;100.00;96128.00;7399480;19;20380;-75
2023/04/20 11:33:09;;;;;;;9.67;8.77;;;;;;;5.56;100.00;96109.47;7399032;19;20806;-75
2023/04/20 11:35:37;;;;;;;13.23;11.83;;;;;;;5.28;100.00;96051.16;7396956;19;20446;-76